»·PEaware :: N123AB KBFL-KMHV

N123AB :: KBFL-KMHV

FLIGHT INFORMATION

Flight Status: Arrived
Operator: Privately registered:
United States
More flights under this callsign
Pilot: Aryan P. (32016)
Aircraft: CESSNA 172 SKYHAWK
(C172)
More flights by this aircraft type
Origin: KBFL Meadows
United States
Destination: KMHV Mojave
United States
More flights between these airports :: More routes between these airports
Route:
File this flight plan on PilotEdge
Remarks:
Altitude:
(Current/Filed)
8,500ft
Speed:
(Current/Filed)
100kts
Departed: 07-Aug-21 05:04 PM
Arrived: 07-Aug-21 05:47 PM
Distance/Time
Traveled:
50nm/0:43
Distance/Time
To Go:
Arrived

Flight Plot

Page will automatically refresh every two minutes.


Map Options




Map Legend


Flown Route
Filed Route
Departure Airport
Arrival Airport
Navaid (VOR, NDB)
Fix

Horizontal Profiles

Position Reports

Time Latitude Longitude Heading Altitude Ground
Speed
07-Aug-21 16:17 35.427050 -119.043350 77 474ft 0kts
07-Aug-21 16:18 35.427050 -119.043350 77 474ft 0kts
07-Aug-21 16:19 35.427050 -119.043350 77 474ft 0kts
07-Aug-21 16:20 35.427050 -119.043350 77 474ft 0kts
07-Aug-21 16:21 35.427050 -119.043350 77 474ft 0kts
07-Aug-21 16:22 35.427050 -119.043350 77 474ft 0kts
07-Aug-21 16:23 35.427050 -119.043350 77 474ft 0kts
07-Aug-21 16:24 35.427050 -119.043350 77 474ft 0kts
07-Aug-21 16:25 35.427050 -119.043350 77 474ft 0kts
07-Aug-21 16:26 35.427050 -119.043350 77 474ft 0kts
07-Aug-21 16:27 35.427050 -119.043350 77 474ft 0kts
07-Aug-21 16:28 35.427050 -119.043350 77 474ft 0kts
07-Aug-21 16:29 35.427050 -119.043350 77 474ft 0kts
07-Aug-21 16:30 35.427050 -119.043350 77 474ft 0kts
07-Aug-21 16:31 35.427050 -119.043350 77 474ft 0kts
07-Aug-21 16:31 35.426729 -119.043639 199 473ft 6kts
07-Aug-21 16:32 35.424134 -119.042920 114 469ft 16kts
07-Aug-21 16:34 35.427050 -119.043350 77 474ft 0kts
07-Aug-21 16:35 35.427050 -119.043350 77 474ft 0kts
07-Aug-21 16:36 35.427050 -119.043350 77 474ft 0kts
07-Aug-21 16:36 35.427050 -119.043350 77 474ft 0kts
07-Aug-21 16:37 35.427050 -119.043350 77 474ft 0kts
07-Aug-21 16:38 35.427050 -119.043350 77 474ft 0kts
07-Aug-21 16:40 35.427050 -119.043350 77 474ft 0kts
07-Aug-21 16:40 35.427050 -119.043350 77 474ft 0kts
07-Aug-21 16:41 35.427050 -119.043350 77 474ft 0kts
07-Aug-21 16:42 35.427050 -119.043350 77 474ft 0kts
07-Aug-21 16:43 35.427050 -119.043350 77 474ft 0kts
07-Aug-21 16:44 35.427050 -119.043350 77 474ft 0kts
07-Aug-21 16:45 35.427048 -119.043297 116 474ft 0kts
07-Aug-21 16:46 35.426986 -119.043168 126 474ft 6kts
07-Aug-21 16:47 35.424079 -119.041439 90 471ft 18kts
07-Aug-21 16:48 35.420813 -119.040303 223 465ft 13kts
07-Aug-21 16:49 35.420512 -119.046322 271 464ft 22kts
07-Aug-21 16:50 35.421752 -119.047098 56 467ft 5kts
07-Aug-21 16:51 35.420712 -119.046800 185 463ft 0kts
07-Aug-21 16:52 35.420505 -119.044718 91 466ft 10kts
07-Aug-21 16:53 35.422462 -119.040182 2 469ft 18kts
07-Aug-21 16:54 35.424091 -119.042860 280 469ft 4kts
07-Aug-21 16:55 35.424075 -119.044184 313 472ft 0kts
07-Aug-21 16:56 35.425590 -119.043387 322 472ft 3kts
07-Aug-21 16:57 35.425297 -119.044515 280 472ft 0kts
07-Aug-21 16:58 35.425297 -119.044515 280 472ft 0kts
07-Aug-21 16:59 35.425297 -119.044515 280 472ft 0kts
07-Aug-21 17:00 35.425297 -119.044515 280 472ft 0kts
07-Aug-21 17:01 35.425297 -119.044515 280 472ft 0kts
07-Aug-21 17:02 35.425340 -119.044872 273 472ft 14kts
07-Aug-21 17:03 35.434471 -119.056658 315 519ft 83kts
07-Aug-21 17:04 35.449313 -119.075409 312 1012ft 62kts
07-Aug-21 17:05 35.465275 -119.087654 22 1259ft 72kts
07-Aug-21 17:06 35.473557 -119.070553 101 1553ft 66kts
07-Aug-21 17:07 35.458762 -119.062154 198 1793ft 64kts
07-Aug-21 17:08 35.435415 -119.065957 189 1803ft 97kts
07-Aug-21 17:09 35.410137 -119.063266 135 1995ft 89kts
07-Aug-21 17:10 35.396731 -119.039460 95 2363ft 81kts
07-Aug-21 17:11 35.388778 -119.014731 115 2654ft 81kts
07-Aug-21 17:12 35.379585 -118.988301 107 2867ft 93kts
07-Aug-21 17:13 35.374554 -118.955876 85 3027ft 98kts
07-Aug-21 17:14 35.376408 -118.925101 83 3359ft 87kts
07-Aug-21 17:15 35.368393 -118.897665 121 3607ft 86kts
07-Aug-21 17:16 35.357755 -118.871378 118 3839ft 85kts
07-Aug-21 17:17 35.346949 -118.845220 119 4042ft 86kts
07-Aug-21 17:18 35.336168 -118.818907 119 4252ft 86kts
07-Aug-21 17:19 35.325829 -118.792726 115 4483ft 82kts
07-Aug-21 17:20 35.315640 -118.769408 122 4655ft 75kts
07-Aug-21 17:21 35.305683 -118.744612 121 5107ft 85kts
07-Aug-21 17:22 35.295004 -118.719053 120 5436ft 80kts
07-Aug-21 17:23 35.285529 -118.695553 122 5518ft 75kts
07-Aug-21 17:24 35.276056 -118.672844 122 5647ft 74kts
07-Aug-21 17:25 35.265779 -118.648079 121 6059ft 85kts
07-Aug-21 17:26 35.255017 -118.621900 121 6634ft 86kts
07-Aug-21 17:27 35.244266 -118.595801 122 7086ft 86kts
07-Aug-21 17:28 35.233500 -118.569786 122 7511ft 85kts
07-Aug-21 17:29 35.222799 -118.544030 122 7979ft 84kts
07-Aug-21 17:30 35.212209 -118.518457 122 8527ft 84kts
07-Aug-21 17:31 35.200574 -118.490552 121 8807ft 111kts
07-Aug-21 17:32 35.183946 -118.452161 121 8705ft 134kts
07-Aug-21 17:33 35.167498 -118.412299 119 8696ft 130kts
07-Aug-21 17:34 35.169588 -118.372286 64 8389ft 149kts
07-Aug-21 17:35 35.156992 -118.343915 190 6449ft 98kts
07-Aug-21 17:36 35.157074 -118.354465 63 5387ft 93kts
07-Aug-21 17:37 35.141759 -118.345841 157 5103ft 75kts
07-Aug-21 17:38 35.145733 -118.322636 28 5087ft 98kts
07-Aug-21 17:39 35.168263 -118.308128 24 5396ft 106kts
07-Aug-21 17:40 35.154224 -118.284507 167 5564ft 110kts
07-Aug-21 17:41 35.125254 -118.270328 162 5906ft 115kts
07-Aug-21 17:42 35.098765 -118.247139 135 6042ft 127kts
07-Aug-21 17:43 35.073732 -118.216309 125 5090ft 133kts
07-Aug-21 17:44 35.061646 -118.173368 110 3614ft 128kts
07-Aug-21 17:45 35.060567 -118.140132 211 2966ft 73kts
07-Aug-21 17:46 35.059165 -118.153452 271 2757ft 26kts
07-Aug-21 17:47 35.058391 -118.157745 176 2766ft 0kts
07-Aug-21 17:48 35.058386 -118.157745 176 2766ft 0kts
07-Aug-21 17:49 35.058386 -118.157745 176 2766ft 0kts
07-Aug-21 17:50 35.057499 -118.157313 157 2767ft 15kts
07-Aug-21 17:51 35.057329 -118.157223 153 2767ft 0kts

Navigation Log

Ident Type
Flight plan parsing failed, navigation log unavailable